sensor_id;sensor_type;location;lat;lon;timestamp;pressure;altitude;pressure_sealevel;temperature;humidity
65880;BME280;52661;51.364;6.054;2023-05-01T00:01:42;101350.03;;;12.95;99.10
65880;BME280;52661;51.364;6.054;2023-05-01T00:04:07;101344.59;;;13.02;100.00
65880;BME280;52661;51.364;6.054;2023-05-01T00:06:33;101342.28;;;13.11;99.71
65880;BME280;52661;51.364;6.054;2023-05-01T00:08:58;101340.72;;;13.10;97.92
65880;BME280;52661;51.364;6.054;2023-05-01T00:11:23;101340.69;;;13.03;98.60
65880;BME280;52661;51.364;6.054;2023-05-01T00:13:49;101332.13;;;13.01;98.00
65880;BME280;52661;51.364;6.054;2023-05-01T00:16:14;101336.41;;;12.91;98.80
65880;BME280;52661;51.364;6.054;2023-05-01T00:18:41;101319.28;;;12.83;99.61
65880;BME280;52661;51.364;6.054;2023-05-01T00:21:07;101319.66;;;12.75;100.00
65880;BME280;52661;51.364;6.054;2023-05-01T00:23:33;101318.50;;;12.76;100.00
65880;BME280;52661;51.364;6.054;2023-05-01T00:25:58;101311.88;;;12.77;100.00
65880;BME280;52661;51.364;6.054;2023-05-01T00:28:23;101314.56;;;12.59;100.00
65880;BME280;52661;51.364;6.054;2023-05-01T00:30:48;101302.13;;;12.51;100.00
65880;BME280;52661;51.364;6.054;2023-05-01T00:33:14;101304.44;;;12.46;100.00
65880;BME280;52661;51.364;6.054;2023-05-01T00:35:43;101295.09;;;12.29;100.00
65880;BME280;52661;51.364;6.054;2023-05-01T00:38:08;101291.56;;;12.14;100.00
65880;BME280;52661;51.364;6.054;2023-05-01T00:40:43;101287.63;;;12.05;100.00
65880;BME280;52661;51.364;6.054;2023-05-01T00:43:09;101281.78;;;11.99;100.00
65880;BME280;52661;51.364;6.054;2023-05-01T00:45:35;101285.28;;;12.00;100.00
65880;BME280;52661;51.364;6.054;2023-05-01T00:48:00;101281.78;;;11.96;100.00
65880;BME280;52661;51.364;6.054;2023-05-01T00:50:27;101284.88;;;12.01;100.00
65880;BME280;52661;51.364;6.054;2023-05-01T00:52:52;101279.88;;;12.14;100.00
65880;BME280;52661;51.364;6.054;2023-05-01T00:55:17;101284.97;;;12.15;100.00
65880;BME280;52661;51.364;6.054;2023-05-01T00:57:43;101278.72;;;12.11;100.00
65880;BME280;52661;51.364;6.054;2023-05-01T01:00:08;101276.03;;;12.25;100.00
65880;BME280;52661;51.364;6.054;2023-05-01T01:02:36;101272.53;;;12.28;100.00
65880;BME280;52661;51.364;6.054;2023-05-01T01:05:02;101263.22;;;12.40;100.00
65880;BME280;52661;51.364;6.054;2023-05-01T01:07:52;101261.28;;;12.41;100.00
65880;BME280;52661;51.364;6.054;2023-05-01T01:13:27;101248.81;;;12.25;100.00
65880;BME280;52661;51.364;6.054;2023-05-01T01:21:31;101246.50;;;12.45;100.00
65880;BME280;52661;51.364;6.054;2023-05-01T01:32:33;101246.91;;;12.65;100.00
65880;BME280;52661;51.364;6.054;2023-05-01T01:35:07;101237.16;;;12.64;100.00
65880;BME280;52661;51.364;6.054;2023-05-01T01:38:08;101232.50;;;12.64;100.00
65880;BME280;52661;51.364;6.054;2023-05-01T01:40:56;101234.06;;;12.65;100.00
65880;BME280;52661;51.364;6.054;2023-05-01T01:43:23;101227.06;;;12.57;100.00
65880;BME280;52661;51.364;6.054;2023-05-01T01:45:55;101213.81;;;12.56;100.00
65880;BME280;52661;51.364;6.054;2023-05-01T01:48:29;101205.28;;;12.50;100.00
65880;BME280;52661;51.364;6.054;2023-05-01T01:50:57;101207.22;;;12.46;100.00
65880;BME280;52661;51.364;6.054;2023-05-01T01:53:24;101204.13;;;12.51;100.00
65880;BME280;52661;51.364;6.054;2023-05-01T01:55:51;101196.31;;;12.28;100.00
65880;BME280;52661;51.364;6.054;2023-05-01T01:58:20;101197.88;;;12.22;100.00
65880;BME280;52661;51.364;6.054;2023-05-01T02:00:51;101188.53;;;12.20;100.00
65880;BME280;52661;51.364;6.054;2023-05-01T02:03:18;101188.50;;;11.99;100.00
65880;BME280;52661;51.364;6.054;2023-05-01T02:05:45;101190.06;;;11.96;100.00
65880;BME280;52661;51.364;6.054;2023-05-01T02:08:12;101181.50;;;11.94;100.00
65880;BME280;52661;51.364;6.054;2023-05-01T02:10:39;101177.25;;;12.04;100.00
65880;BME280;52661;51.364;6.054;2023-05-01T02:13:05;101172.19;;;11.95;100.00
65880;BME280;52661;51.364;6.054;2023-05-01T02:15:33;101168.69;;;12.05;100.00
65880;BME280;52661;51.364;6.054;2023-05-01T02:18:01;101170.63;;;12.12;100.00
65880;BME280;52661;51.364;6.054;2023-05-01T02:20:27;101167.53;;;12.10;100.00
65880;BME280;52661;51.364;6.054;2023-05-01T02:22:54;101171.81;;;11.97;100.00
65880;BME280;52661;51.364;6.054;2023-05-01T02:25:20;101175.66;;;11.78;100.00
65880;BME280;52661;51.364;6.054;2023-05-01T02:27:51;101166.69;;;11.74;100.00
65880;BME280;52661;51.364;6.054;2023-05-01T02:30:17;101165.84;;;11.56;100.00
65880;BME280;52661;51.364;6.054;2023-05-01T02:32:43;101169.31;;;11.49;100.00
65880;BME280;52661;51.364;6.054;2023-05-01T02:35:08;101159.25;;;11.60;100.00
65880;BME280;52661;51.364;6.054;2023-05-01T02:37:35;101165.50;;;11.68;100.00
65880;BME280;52661;51.364;6.054;2023-05-01T02:40:01;101159.31;;;11.74;100.00
65880;BME280;52661;51.364;6.054;2023-05-01T02:42:27;101162.44;;;11.80;100.00
65880;BME280;52661;51.364;6.054;2023-05-01T02:44:57;101154.28;;;11.80;100.00
65880;BME280;52661;51.364;6.054;2023-05-01T02:47:25;101155.44;;;11.72;100.00
65880;BME280;52661;51.364;6.054;2023-05-01T02:49:51;101152.59;;;11.47;100.00
65880;BME280;52661;51.364;6.054;2023-05-01T02:52:18;101149.06;;;11.36;100.00
65880;BME280;52661;51.364;6.054;2023-05-01T02:54:45;101149.50;;;11.45;100.00
65880;BME280;52661;51.364;6.054;2023-05-01T02:57:11;101139.34;;;11.28;100.00
65880;BME280;52661;51.364;6.054;2023-05-01T02:59:37;101136.22;;;11.29;100.00
65880;BME280;52661;51.364;6.054;2023-05-01T03:02:02;101133.53;;;11.33;100.00
65880;BME280;52661;51.364;6.054;2023-05-01T03:04:28;101124.59;;;11.36;100.00
65880;BME280;52661;51.364;6.054;2023-05-01T03:06:53;101126.63;;;11.53;100.00
65880;BME280;52661;51.364;6.054;2023-05-01T03:09:19;101129.72;;;11.59;100.00
65880;BME280;52661;51.364;6.054;2023-05-01T03:11:46;101131.63;;;11.48;100.00
65880;BME280;52661;51.364;6.054;2023-05-01T03:14:11;101133.50;;;11.29;100.00
65880;BME280;52661;51.364;6.054;2023-05-01T03:16:36;101131.97;;;11.28;100.00
65880;BME280;52661;51.364;6.054;2023-05-01T03:19:02;101131.59;;;11.33;100.00
65880;BME280;52661;51.364;6.054;2023-05-01T03:21:27;101131.22;;;11.31;100.00
65880;BME280;52661;51.364;6.054;2023-05-01T03:23:53;101119.91;;;11.22;100.00
65880;BME280;52661;51.364;6.054;2023-05-01T03:26:18;101128.06;;;11.22;100.00
65880;BME280;52661;51.364;6.054;2023-05-01T03:28:43;101126.13;;;11.26;100.00
65880;BME280;52661;51.364;6.054;2023-05-01T03:31:09;101123.06;;;11.31;100.00
65880;BME280;52661;51.364;6.054;2023-05-01T03:33:34;101120.38;;;11.42;100.00
65880;BME280;52661;51.364;6.054;2023-05-01T03:36:03;101116.88;;;11.38;100.00
65880;BME280;52661;51.364;6.054;2023-05-01T03:38:32;101112.97;;;11.32;100.00
65880;BME280;52661;51.364;6.054;2023-05-01T03:40:58;101106.75;;;11.28;100.00
65880;BME280;52661;51.364;6.054;2023-05-01T03:43:24;101114.91;;;11.31;100.00
65880;BME280;52661;51.364;6.054;2023-05-01T03:45:50;101106.72;;;11.24;100.00
65880;BME280;52661;51.364;6.054;2023-05-01T03:48:17;101098.50;;;11.03;100.00
65880;BME280;52661;51.364;6.054;2023-05-01T03:50:43;101104.25;;;10.91;100.00
65880;BME280;52661;51.364;6.054;2023-05-01T03:53:08;101100.75;;;10.87;100.00
65880;BME280;52661;51.364;6.054;2023-05-01T03:55:34;101093.75;;;10.90;100.00
65880;BME280;52661;51.364;6.054;2023-05-01T03:57:59;101091.47;;;10.92;100.00
65880;BME280;52661;51.364;6.054;2023-05-01T04:00:25;101099.19;;;10.86;100.00
65880;BME280;52661;51.364;6.054;2023-05-01T04:02:50;101098.09;;;11.01;100.00
65880;BME280;52661;51.364;6.054;2023-05-01T04:05:16;101091.91;;;11.08;100.00
65880;BME280;52661;51.364;6.054;2023-05-01T04:07:42;101090.97;;;10.72;100.00
65880;BME280;52661;51.364;6.054;2023-05-01T04:10:07;101085.88;;;10.63;100.00
65880;BME280;52661;51.364;6.054;2023-05-01T04:12:34;101081.94;;;10.54;100.00
65880;BME280;52661;51.364;6.054;2023-05-01T04:14:59;101083.53;;;10.58;100.00
65880;BME280;52661;51.364;6.054;2023-05-01T04:17:25;101085.44;;;10.54;100.00
65880;BME280;52661;51.364;6.054;2023-05-01T04:19:50;101084.69;;;10.61;100.00
65880;BME280;52661;51.364;6.054;2023-05-01T04:22:16;101084.31;;;10.59;100.00
65880;BME280;52661;51.364;6.054;2023-05-01T04:24:41;101085.44;;;10.58;100.00
65880;BME280;52661;51.364;6.054;2023-05-01T04:27:06;101079.25;;;10.61;100.00
65880;BME280;52661;51.364;6.054;2023-05-01T04:29:32;101081.63;;;10.66;100.00
65880;BME280;52661;51.364;6.054;2023-05-01T04:31:57;101078.09;;;10.58;100.00
65880;BME280;52661;51.364;6.054;2023-05-01T04:34:22;101079.78;;;10.80;100.00
65880;BME280;52661;51.364;6.054;2023-05-01T04:36:48;101084.09;;;10.92;100.00
65880;BME280;52661;51.364;6.054;2023-05-01T04:39:13;101074.78;;;11.00;100.00
65880;BME280;52661;51.364;6.054;2023-05-01T04:41:39;101081.34;;;10.85;100.00
65880;BME280;52661;51.364;6.054;2023-05-01T04:44:04;101075.84;;;10.74;100.00
65880;BME280;52661;51.364;6.054;2023-05-01T04:46:30;101076.63;;;10.75;100.00
65880;BME280;52661;51.364;6.054;2023-05-01T04:48:55;101074.31;;;10.77;100.00
65880;BME280;52661;51.364;6.054;2023-05-01T04:51:20;101070.84;;;10.83;100.00
65880;BME280;52661;51.364;6.054;2023-05-01T04:53:46;101070.94;;;11.05;100.00
65880;BME280;52661;51.364;6.054;2023-05-01T04:56:12;101076.34;;;11.01;100.00
65880;BME280;52661;51.364;6.054;2023-05-01T04:58:37;101073.31;;;11.13;100.00
65880;BME280;52661;51.364;6.054;2023-05-01T05:01:02;101075.63;;;11.18;100.00
65880;BME280;52661;51.364;6.054;2023-05-01T05:03:28;101074.09;;;11.10;100.00
65880;BME280;52661;51.364;6.054;2023-05-01T05:05:53;101070.97;;;11.15;100.00
65880;BME280;52661;51.364;6.054;2023-05-01T05:08:18;101075.66;;;11.25;100.00
65880;BME280;52661;51.364;6.054;2023-05-01T05:10:43;101072.56;;;11.27;100.00
65880;BME280;52661;51.364;6.054;2023-05-01T05:13:09;101072.53;;;11.16;100.00
65880;BME280;52661;51.364;6.054;2023-05-01T05:15:34;101077.16;;;11.05;100.00
65880;BME280;52661;51.364;6.054;2023-05-01T05:18:00;101080.22;;;11.00;100.00
65880;BME280;52661;51.364;6.054;2023-05-01T05:20:25;101071.28;;;11.00;100.00
65880;BME280;52661;51.364;6.054;2023-05-01T05:22:51;101079.84;;;10.98;100.00
65880;BME280;52661;51.364;6.054;2023-05-01T05:25:16;101076.34;;;10.98;100.00
65880;BME280;52661;51.364;6.054;2023-05-01T05:27:42;101073.97;;;10.89;100.00
65880;BME280;52661;51.364;6.054;2023-05-01T05:30:07;101077.50;;;10.97;100.00
65880;BME280;52661;51.364;6.054;2023-05-01T05:32:33;101078.28;;;10.97;100.00
65880;BME280;52661;51.364;6.054;2023-05-01T05:34:58;101079.44;;;11.00;100.00
65880;BME280;52661;51.364;6.054;2023-05-01T05:37:24;101076.78;;;11.07;100.00
65880;BME280;52661;51.364;6.054;2023-05-01T05:39:51;101081.47;;;11.20;100.00
65880;BME280;52661;51.364;6.054;2023-05-01T05:42:16;101077.22;;;11.30;100.00
65880;BME280;52661;51.364;6.054;2023-05-01T05:44:41;101084.63;;;11.40;100.00
65880;BME280;52661;51.364;6.054;2023-05-01T05:47:06;101084.63;;;11.44;100.00
65880;BME280;52661;51.364;6.054;2023-05-01T05:49:32;101079.63;;;11.53;100.00
65880;BME280;52661;51.364;6.054;2023-05-01T05:51:57;101080.00;;;11.62;100.00
65880;BME280;52661;51.364;6.054;2023-05-01T05:54:22;101078.09;;;11.66;100.00
65880;BME280;52661;51.364;6.054;2023-05-01T05:56:48;101075.78;;;11.68;100.00
65880;BME280;52661;51.364;6.054;2023-05-01T05:59:13;101074.63;;;11.76;100.00
65880;BME280;52661;51.364;6.054;2023-05-01T06:01:38;101075.03;;;11.78;100.00
65880;BME280;52661;51.364;6.054;2023-05-01T06:04:05;101076.59;;;11.79;100.00
65880;BME280;52661;51.364;6.054;2023-05-01T06:06:30;101068.03;;;11.88;100.00
65880;BME280;52661;51.364;6.054;2023-05-01T06:08:56;101078.13;;;11.91;100.00
65880;BME280;52661;51.364;6.054;2023-05-01T06:11:21;101068.81;;;11.88;100.00
65880;BME280;52661;51.364;6.054;2023-05-01T06:13:47;101074.66;;;11.94;100.00
65880;BME280;52661;51.364;6.054;2023-05-01T06:16:12;101079.69;;;12.02;100.00
65880;BME280;52661;51.364;6.054;2023-05-01T06:18:39;101075.41;;;12.12;100.00
65880;BME280;52661;51.364;6.054;2023-05-01T06:21:05;101085.91;;;12.17;100.00
65880;BME280;52661;51.364;6.054;2023-05-01T06:23:30;101068.81;;;12.13;100.00
65880;BME280;52661;51.364;6.054;2023-05-01T06:25:56;101071.16;;;12.07;100.00
65880;BME280;52661;51.364;6.054;2023-05-01T06:28:21;101071.53;;;12.06;100.00
65880;BME280;52661;51.364;6.054;2023-05-01T06:30:46;101080.09;;;12.15;100.00
65880;BME280;52661;51.364;6.054;2023-05-01T06:33:12;101087.06;;;12.26;100.00
65880;BME280;52661;51.364;6.054;2023-05-01T06:35:38;101076.56;;;12.28;100.00
65880;BME280;52661;51.364;6.054;2023-05-01T06:38:04;101077.34;;;12.29;100.00
65880;BME280;52661;51.364;6.054;2023-05-01T06:40:29;101080.84;;;12.33;100.00
65880;BME280;52661;51.364;6.054;2023-05-01T06:42:56;101074.22;;;12.30;100.00
65880;BME280;52661;51.364;6.054;2023-05-01T06:45:21;101073.84;;;12.36;100.00
65880;BME280;52661;51.364;6.054;2023-05-01T06:47:47;101079.28;;;12.43;100.00
65880;BME280;52661;51.364;6.054;2023-05-01T06:50:12;101073.44;;;12.51;100.00
65880;BME280;52661;51.364;6.054;2023-05-01T06:52:39;101069.91;;;12.54;100.00
65880;BME280;52661;51.364;6.054;2023-05-01T06:55:04;101073.78;;;12.60;100.00
65880;BME280;52661;51.364;6.054;2023-05-01T06:57:30;101071.03;;;12.67;100.00
65880;BME280;52661;51.364;6.054;2023-05-01T06:59:55;101084.66;;;12.67;100.00
65880;BME280;52661;51.364;6.054;2023-05-01T07:02:21;101075.72;;;12.63;100.00
65880;BME280;52661;51.364;6.054;2023-05-01T07:04:46;101070.66;;;12.69;100.00
65880;BME280;52661;51.364;6.054;2023-05-01T07:07:11;101071.03;;;12.67;100.00
65880;BME280;52661;51.364;6.054;2023-05-01T07:09:38;101078.03;;;12.75;100.00
65880;BME280;52661;51.364;6.054;2023-05-01T07:12:04;101070.63;;;12.79;100.00
65880;BME280;52661;51.364;6.054;2023-05-01T07:14:30;101071.38;;;12.87;100.00
65880;BME280;52661;51.364;6.054;2023-05-01T07:16:55;101069.38;;;12.98;100.00
65880;BME280;52661;51.364;6.054;2023-05-01T07:19:21;101079.09;;;12.99;100.00
65880;BME280;52661;51.364;6.054;2023-05-01T07:21:46;101072.47;;;13.04;100.00
65880;BME280;52661;51.364;6.054;2023-05-01T07:24:11;101078.69;;;13.11;100.00
65880;BME280;52661;51.364;6.054;2023-05-01T07:26:37;101080.22;;;13.19;100.00
65880;BME280;52661;51.364;6.054;2023-05-01T07:29:03;101076.28;;;13.27;100.00
65880;BME280;52661;51.364;6.054;2023-05-01T07:31:28;101081.69;;;13.35;100.00
65880;BME280;52661;51.364;6.054;2023-05-01T07:33:53;101080.09;;;13.44;100.00
65880;BME280;52661;51.364;6.054;2023-05-01T07:36:19;101078.47;;;13.50;100.00
65880;BME280;52661;51.364;6.054;2023-05-01T07:38:46;101073.75;;;13.58;100.00
65880;BME280;52661;51.364;6.054;2023-05-01T07:41:12;101068.28;;;13.61;100.00
65880;BME280;52661;51.364;6.054;2023-05-01T07:43:37;101071.38;;;13.67;100.00
65880;BME280;52661;51.364;6.054;2023-05-01T07:46:02;101067.78;;;13.77;100.00
65880;BME280;52661;51.364;6.054;2023-05-01T07:48:28;101067.38;;;13.78;100.00
65880;BME280;52661;51.364;6.054;2023-05-01T07:50:54;101076.28;;;13.86;100.00
65880;BME280;52661;51.364;6.054;2023-05-01T07:53:19;101069.59;;;13.94;100.00
65880;BME280;52661;51.364;6.054;2023-05-01T07:55:46;101059.03;;;14.00;100.00
65880;BME280;52661;51.364;6.054;2023-05-01T07:58:12;101068.34;;;14.06;100.00
65880;BME280;52661;51.364;6.054;2023-05-01T08:00:37;101066.72;;;14.12;100.00
65880;BME280;52661;51.364;6.054;2023-05-01T08:03:02;101066.31;;;14.13;100.00
65880;BME280;52661;51.364;6.054;2023-05-01T08:05:28;101068.56;;;14.22;100.00
65880;BME280;52661;51.364;6.054;2023-05-01T08:07:53;101067.75;;;14.28;100.00
65880;BME280;52661;51.364;6.054;2023-05-01T08:10:18;101067.31;;;14.30;100.00
65880;BME280;52661;51.364;6.054;2023-05-01T08:12:44;101075.91;;;14.36;100.00
65880;BME280;52661;51.364;6.054;2023-05-01T08:15:10;101068.41;;;14.43;100.00
65880;BME280;52661;51.364;6.054;2023-05-01T08:17:35;101070.34;;;14.43;100.00
65880;BME280;52661;51.364;6.054;2023-05-01T08:20:01;101071.84;;;14.47;99.87
65880;BME280;52661;51.364;6.054;2023-05-01T08:22:27;101073.00;;;14.50;99.71
65880;BME280;52661;51.364;6.054;2023-05-01T08:24:52;101060.53;;;14.49;100.00
65880;BME280;52661;51.364;6.054;2023-05-01T08:27:18;101068.97;;;14.61;100.00
65880;BME280;52661;51.364;6.054;2023-05-01T08:29:43;101065.75;;;14.70;100.00
65880;BME280;52661;51.364;6.054;2023-05-01T08:32:08;101064.63;;;14.67;99.73
65880;BME280;52661;51.364;6.054;2023-05-01T08:34:34;101063.06;;;14.66;100.00
65880;BME280;52661;51.364;6.054;2023-05-01T08:37:00;101068.88;;;14.72;100.00
65880;BME280;52661;51.364;6.054;2023-05-01T08:39:25;101064.91;;;14.76;100.00
65880;BME280;52661;51.364;6.054;2023-05-01T08:41:51;101072.28;;;14.79;100.00
65880;BME280;52661;51.364;6.054;2023-05-01T08:44:18;101071.00;;;14.88;100.00
65880;BME280;52661;51.364;6.054;2023-05-01T08:47:11;101065.94;;;14.90;100.00
65880;BME280;52661;51.364;6.054;2023-05-01T08:49:40;101064.34;;;14.92;100.00
65880;BME280;52661;51.364;6.054;2023-05-01T08:52:06;101071.34;;;14.93;100.00
65880;BME280;52661;51.364;6.054;2023-05-01T08:54:33;101061.50;;;14.99;100.00
65880;BME280;52661;51.364;6.054;2023-05-01T08:57:02;101061.13;;;15.01;100.00
65880;BME280;52661;51.364;6.054;2023-05-01T08:59:29;101065.66;;;15.11;100.00
65880;BME280;52661;51.364;6.054;2023-05-01T09:01:59;101065.22;;;15.12;99.06
65880;BME280;52661;51.364;6.054;2023-05-01T09:04:28;101061.28;;;15.17;100.00
65880;BME280;52661;51.364;6.054;2023-05-01T09:06:57;101062.84;;;15.18;100.00
65880;BME280;52661;51.364;6.054;2023-05-01T09:09:25;101062.63;;;15.32;100.00
65880;BME280;52661;51.364;6.054;2023-05-01T09:11:50;101057.13;;;15.36;100.00
65880;BME280;52661;51.364;6.054;2023-05-01T09:14:15;101061.72;;;15.42;99.62
65880;BME280;52661;51.364;6.054;2023-05-01T09:16:41;101061.22;;;15.51;97.38
65880;BME280;52661;51.364;6.054;2023-05-01T09:19:07;101068.09;;;15.62;96.80
65880;BME280;52661;51.364;6.054;2023-05-01T09:21:32;101066.13;;;15.63;96.25
65880;BME280;52661;51.364;6.054;2023-05-01T09:23:57;101059.00;;;15.69;97.57
65880;BME280;52661;51.364;6.054;2023-05-01T09:26:23;101062.41;;;15.77;96.30
65880;BME280;52661;51.364;6.054;2023-05-01T09:28:48;101067.34;;;15.85;96.85
65880;BME280;52661;51.364;6.054;2023-05-01T09:31:20;101066.56;;;15.85;98.00
65880;BME280;52661;51.364;6.054;2023-05-01T09:33:54;101063.06;;;15.84;97.86
65880;BME280;52661;51.364;6.054;2023-05-01T09:36:21;101061.47;;;15.87;95.88
65880;BME280;52661;51.364;6.054;2023-05-01T09:38:47;101060.22;;;15.91;99.32
65880;BME280;52661;51.364;6.054;2023-05-01T09:41:13;101058.47;;;16.01;99.26
65880;BME280;52661;51.364;6.054;2023-05-01T09:43:38;101055.75;;;16.01;99.57
65880;BME280;52661;51.364;6.054;2023-05-01T09:46:10;101062.94;;;16.14;96.50
65880;BME280;52661;51.364;6.054;2023-05-01T09:48:37;101060.78;;;16.25;97.06
65880;BME280;52661;51.364;6.054;2023-05-01T09:51:34;101066.91;;;16.33;95.30
65880;BME280;52661;51.364;6.054;2023-05-01T09:54:01;101060.06;;;16.21;96.85
65880;BME280;52661;51.364;6.054;2023-05-01T09:56:28;101062.41;;;16.23;95.24
65880;BME280;52661;51.364;6.054;2023-05-01T09:58:56;101070.69;;;16.19;94.66
65880;BME280;52661;51.364;6.054;2023-05-01T10:01:39;101065.69;;;16.14;94.72
65880;BME280;52661;51.364;6.054;2023-05-01T10:04:06;101068.59;;;16.27;96.61
65880;BME280;52661;51.364;6.054;2023-05-01T10:06:32;101067.88;;;16.23;96.21
65880;BME280;52661;51.364;6.054;2023-05-01T10:08:58;101067.97;;;16.39;95.27
65880;BME280;52661;51.364;6.054;2023-05-01T10:11:23;101062.03;;;16.44;94.96
65880;BME280;52661;51.364;6.054;2023-05-01T10:14:15;101064.81;;;16.41;94.60
65880;BME280;52661;51.364;6.054;2023-05-01T10:16:40;101066.38;;;16.42;92.92
65880;BME280;52661;51.364;6.054;2023-05-01T10:19:06;101071.22;;;16.54;93.51
65880;BME280;52661;51.364;6.054;2023-05-01T10:21:32;101075.91;;;16.53;93.03
65880;BME280;52661;51.364;6.054;2023-05-01T10:23:59;101066.59;;;16.51;91.36
65880;BME280;52661;51.364;6.054;2023-05-01T10:26:25;101069.59;;;16.60;91.67
65880;BME280;52661;51.364;6.054;2023-05-01T10:28:51;101069.69;;;16.53;89.51
65880;BME280;52661;51.364;6.054;2023-05-01T10:31:16;101069.91;;;16.42;90.48
65880;BME280;52661;51.364;6.054;2023-05-01T10:33:43;101064.03;;;16.40;91.95
65880;BME280;52661;51.364;6.054;2023-05-01T10:36:11;101066.84;;;16.37;92.68
65880;BME280;52661;51.364;6.054;2023-05-01T10:38:39;101066.72;;;16.44;90.07
65880;BME280;52661;51.364;6.054;2023-05-01T10:41:05;101069.75;;;16.49;91.39
65880;BME280;52661;51.364;6.054;2023-05-01T10:43:30;101060.25;;;16.54;92.13
65880;BME280;52661;51.364;6.054;2023-05-01T10:51:13;101062.03;;;16.44;87.60
65880;BME280;52661;51.364;6.054;2023-05-01T10:53:40;101057.91;;;16.56;87.41
65880;BME280;52661;51.364;6.054;2023-05-01T10:59:01;101066.59;;;16.51;88.52
65880;BME280;52661;51.364;6.054;2023-05-01T11:01:30;101061.63;;;16.46;88.74
65880;BME280;52661;51.364;6.054;2023-05-01T11:04:06;101055.13;;;16.59;92.69
65880;BME280;52661;51.364;6.054;2023-05-01T11:06:35;101056.22;;;16.62;93.78
65880;BME280;52661;51.364;6.054;2023-05-01T11:09:40;101059.28;;;16.67;91.88
65880;BME280;52661;51.364;6.054;2023-05-01T11:12:53;101056.78;;;16.73;92.82
65880;BME280;52661;51.364;6.054;2023-05-01T11:20:03;101053.91;;;17.00;93.73
65880;BME280;52661;51.364;6.054;2023-05-01T11:22:30;101054.88;;;17.09;93.97
65880;BME280;52661;51.364;6.054;2023-05-01T11:24:55;101047.97;;;17.21;92.82
65880;BME280;52661;51.364;6.054;2023-05-01T11:27:21;101037.31;;;17.23;93.70
65880;BME280;52661;51.364;6.054;2023-05-01T11:29:49;101052.53;;;17.08;92.19
65880;BME280;52661;51.364;6.054;2023-05-01T11:32:17;101046.72;;;17.06;94.08
65880;BME280;52661;51.364;6.054;2023-05-01T11:34:43;101045.09;;;17.08;95.30
65880;BME280;52661;51.364;6.054;2023-05-01T11:37:08;101042.72;;;17.27;95.02
65880;BME280;52661;51.364;6.054;2023-05-01T11:39:34;101050.91;;;17.46;93.61
65880;BME280;52661;51.364;6.054;2023-05-01T11:42:06;101047.84;;;17.77;89.12
65880;BME280;52661;51.364;6.054;2023-05-01T11:44:32;101041.44;;;17.83;84.83
65880;BME280;52661;51.364;6.054;2023-05-01T11:46:58;101033.22;;;17.83;86.01
65880;BME280;52661;51.364;6.054;2023-05-01T11:49:26;101037.03;;;18.02;87.73
65880;BME280;52661;51.364;6.054;2023-05-01T11:51:58;101030.06;;;18.13;86.94
65880;BME280;52661;51.364;6.054;2023-05-01T11:54:23;101037.22;;;18.40;86.24
65880;BME280;52661;51.364;6.054;2023-05-01T11:56:59;101035.00;;;18.63;84.92
65880;BME280;52661;51.364;6.054;2023-05-01T11:59:25;101027.88;;;18.66;85.92
65880;BME280;52661;51.364;6.054;2023-05-01T12:01:51;101028.00;;;18.62;83.56
65880;BME280;52661;51.364;6.054;2023-05-01T12:04:25;101028.81;;;18.88;81.63
65880;BME280;52661;51.364;6.054;2023-05-01T12:06:54;101029.59;;;19.01;76.27
65880;BME280;52661;51.364;6.054;2023-05-01T12:09:21;101023.44;;;18.97;76.40
65880;BME280;52661;51.364;6.054;2023-05-01T12:11:51;101022.56;;;19.00;74.27
65880;BME280;52661;51.364;6.054;2023-05-01T12:14:17;101020.56;;;19.01;73.92
65880;BME280;52661;51.364;6.054;2023-05-01T12:16:44;101018.50;;;19.17;76.98
65880;BME280;52661;51.364;6.054;2023-05-01T12:19:12;101007.03;;;19.32;74.19
65880;BME280;52661;51.364;6.054;2023-05-01T12:21:38;100999.56;;;19.32;73.07
65880;BME280;52661;51.364;6.054;2023-05-01T12:24:11;100998.25;;;19.37;72.37
65880;BME280;52661;51.364;6.054;2023-05-01T12:26:39;101003.44;;;19.47;75.52
65880;BME280;52661;51.364;6.054;2023-05-01T12:29:05;100998.56;;;19.01;74.87
65880;BME280;52661;51.364;6.054;2023-05-01T12:31:32;100995.38;;;18.77;73.98
65880;BME280;52661;51.364;6.054;2023-05-01T12:33:59;100999.97;;;18.80;73.92
65880;BME280;52661;51.364;6.054;2023-05-01T12:36:27;100997.09;;;18.71;72.34
65880;BME280;52661;51.364;6.054;2023-05-01T12:39:09;101003.78;;;18.57;75.04
65880;BME280;52661;51.364;6.054;2023-05-01T12:41:43;101004.25;;;18.40;80.17
65880;BME280;52661;51.364;6.054;2023-05-01T12:46:51;101004.56;;;17.68;79.64
65880;BME280;52661;51.364;6.054;2023-05-01T12:49:20;101015.66;;;17.29;77.31
65880;BME280;52661;51.364;6.054;2023-05-01T12:51:47;101008.75;;;17.04;75.65
65880;BME280;52661;51.364;6.054;2023-05-01T12:54:30;101027.13;;;16.88;75.85
65880;BME280;52661;51.364;6.054;2023-05-01T12:57:13;101019.03;;;16.41;83.09
65880;BME280;52661;51.364;6.054;2023-05-01T12:59:43;101016.03;;;16.12;88.50
65880;BME280;52661;51.364;6.054;2023-05-01T13:02:11;101017.47;;;15.97;92.44
65880;BME280;52661;51.364;6.054;2023-05-01T13:04:39;101024.91;;;15.97;93.10
65880;BME280;52661;51.364;6.054;2023-05-01T13:07:15;101028.72;;;16.03;92.68
65880;BME280;52661;51.364;6.054;2023-05-01T13:09:51;101027.91;;;16.25;92.08
65880;BME280;52661;51.364;6.054;2023-05-01T13:12:16;101031.53;;;16.42;92.08
65880;BME280;52661;51.364;6.054;2023-05-01T13:14:42;101039.44;;;16.60;89.96
65880;BME280;52661;51.364;6.054;2023-05-01T13:17:11;101045.84;;;16.73;86.07